createdAt,value
2019-04-14T00:00:20.729Z,89.32
2019-04-14T00:02:51.150Z,89.33
2019-04-14T00:05:19.477Z,89.34
2019-04-14T00:07:47.783Z,89.45
2019-04-14T00:10:16.295Z,89.53
2019-04-14T00:12:44.883Z,89.60
2019-04-14T00:15:24.464Z,89.62
2019-04-14T00:17:43.531Z,89.66
2019-04-14T00:20:11.907Z,89.77
2019-04-14T00:22:40.261Z,90.29
2019-04-14T00:25:08.829Z,90.73
2019-04-14T00:27:37.104Z,90.89
2019-04-14T00:30:07.582Z,90.77
2019-04-14T00:32:37.888Z,90.68
2019-04-14T00:35:14.602Z,90.70
2019-04-14T00:37:53.426Z,90.96
2019-04-14T00:40:23.600Z,91.84
2019-04-14T00:42:56.308Z,92.46
2019-04-14T00:45:41.622Z,92.21
2019-04-14T00:48:09.611Z,92.12
2019-04-14T00:50:34.211Z,92.39
2019-04-14T00:53:03.519Z,92.42
2019-04-14T00:55:31.860Z,92.51
2019-04-14T00:58:00.137Z,92.68
2019-04-14T01:00:29.666Z,93.18
2019-04-14T01:02:58.042Z,93.41
2019-04-14T01:05:26.312Z,93.53
2019-04-14T01:07:54.555Z,93.83
2019-04-14T01:10:23.590Z,94.10
2019-04-14T01:12:51.892Z,93.75
2019-04-14T01:15:20.163Z,93.81
2019-04-14T01:17:48.577Z,93.65
2019-04-14T01:20:16.868Z,93.79
2019-04-14T01:22:45.147Z,93.99
2019-04-14T01:25:13.501Z,94.22
2019-04-14T01:27:42.856Z,94.35
2019-04-14T01:30:11.407Z,94.65
2019-04-14T01:32:39.686Z,95.03
2019-04-14T01:35:09.863Z,95.66
2019-04-14T01:37:38.151Z,96.32
2019-04-14T01:40:07.546Z,97.35
2019-04-14T01:42:35.846Z,97.90
2019-04-14T01:45:05.744Z,98.21
2019-04-14T01:47:34.017Z,98.58
2019-04-14T01:50:02.297Z,98.54
2019-04-14T01:52:34.884Z,98.40
2019-04-14T01:55:07.557Z,98.52
2019-04-14T01:57:37.473Z,98.71
2019-04-14T02:00:20.751Z,99.18
2019-04-14T02:02:49.250Z,99.40
2019-04-14T02:05:17.547Z,99.53
2019-04-14T02:07:46.922Z,99.59
2019-04-14T02:10:15.383Z,99.47
2019-04-14T02:12:43.699Z,99.17
2019-04-14T02:15:13.294Z,99.21
2019-04-14T02:17:41.717Z,99.26
2019-04-14T02:20:10.125Z,99.34
2019-04-14T02:22:39.683Z,99.49
2019-04-14T02:25:08.012Z,99.55
2019-04-14T02:27:36.305Z,99.65
2019-04-14T02:30:10.141Z,99.78
2019-04-14T02:33:05.388Z,100.00
2019-04-14T02:35:36.917Z,100.00
2019-04-14T02:38:14.508Z,100.00
2019-04-14T02:40:57.632Z,100.00
2019-04-14T02:43:08.444Z,100.00
2019-04-14T02:45:44.610Z,100.00
2019-04-14T02:48:20.279Z,100.00
2019-04-14T02:50:30.100Z,100.00
2019-04-14T02:53:12.285Z,100.00
2019-04-14T02:55:38.004Z,100.00
2019-04-14T03:03:08.849Z,100.00
2019-04-14T03:05:39.522Z,100.00
2019-04-14T03:08:11.450Z,100.00
2019-04-14T03:10:40.207Z,100.00
2019-04-14T03:13:15.305Z,100.00
2019-04-14T03:15:39.409Z,100.00
2019-04-14T03:20:47.618Z,100.00
2019-04-14T03:23:31.129Z,100.00
2019-04-14T03:25:45.469Z,100.00
2019-04-14T03:28:38.509Z,100.00
2019-04-14T03:41:24.046Z,99.38
2019-04-14T03:44:01.624Z,99.17
2019-04-14T03:46:28.812Z,99.01
2019-04-14T03:48:57.915Z,98.96
2019-04-14T03:53:47.287Z,98.93
2019-04-14T03:56:02.441Z,98.69
2019-04-14T03:58:27.817Z,98.53
2019-04-14T04:00:56.071Z,98.59
2019-04-14T04:03:24.360Z,98.64
2019-04-14T04:05:52.721Z,98.95
2019-04-14T04:08:22.246Z,99.29
2019-04-14T04:10:53.274Z,99.47
2019-04-14T04:13:21.920Z,99.82
2019-04-14T04:15:50.208Z,100.00
2019-04-14T04:18:20.146Z,100.00
2019-04-14T04:21:09.470Z,99.84
2019-04-14T04:23:45.379Z,99.80
2019-04-14T04:26:21.283Z,100.00
2019-04-14T04:29:03.244Z,99.97
2019-04-14T04:31:33.150Z,99.52
2019-04-14T04:34:21.114Z,99.62
2019-04-14T04:36:51.593Z,99.78
2019-04-14T04:39:21.533Z,99.62
2019-04-14T04:41:49.800Z,99.53
2019-04-14T04:44:18.077Z,99.71
2019-04-14T04:46:46.380Z,99.75
2019-04-14T04:49:20.505Z,99.58
2019-04-14T04:51:44.646Z,99.65
2019-04-14T04:54:12.915Z,99.68
2019-04-14T04:56:41.194Z,99.67
2019-04-14T04:59:09.764Z,99.56
2019-04-14T05:01:38.653Z,99.86
2019-04-14T05:04:06.980Z,99.51
2019-04-14T05:06:59.080Z,99.19
2019-04-14T05:09:38.993Z,99.10
2019-04-14T05:12:26.176Z,99.19
2019-04-14T05:15:03.144Z,98.89
2019-04-14T05:17:34.259Z,98.37
2019-04-14T05:20:03.213Z,98.03
2019-04-14T05:22:31.509Z,97.79
2019-04-14T05:24:59.774Z,97.34
2019-04-14T05:27:28.041Z,96.90
2019-04-14T05:29:56.302Z,96.56
2019-04-14T05:32:24.585Z,96.41
2019-04-14T05:34:52.994Z,96.10
2019-04-14T05:37:22.307Z,95.66
2019-04-14T05:39:50.805Z,95.83
2019-04-14T05:42:22.776Z,96.08
2019-04-14T05:44:49.461Z,96.06
2019-04-14T05:47:17.800Z,95.93
2019-04-14T05:49:50.106Z,95.63
2019-04-14T05:52:16.396Z,95.51
2019-04-14T05:54:44.750Z,94.86
2019-04-14T05:57:13.382Z,94.78
2019-04-14T05:59:41.894Z,94.81
2019-04-14T06:02:10.098Z,94.91
2019-04-14T06:04:39.570Z,94.66
2019-04-14T06:07:07.819Z,94.46
2019-04-14T06:09:36.117Z,93.98
2019-04-14T06:12:04.371Z,93.76
2019-04-14T06:14:32.647Z,93.70
2019-04-14T06:17:00.926Z,93.51
2019-04-14T06:19:37.129Z,93.34
2019-04-14T06:21:59.261Z,92.93
2019-04-14T06:24:27.520Z,92.78
2019-04-14T06:26:55.785Z,92.42
2019-04-14T06:29:24.053Z,92.39
2019-04-14T06:31:56.886Z,92.01
2019-04-14T06:34:26.802Z,91.51
2019-04-14T06:36:59.351Z,91.30
2019-04-14T06:39:29.316Z,90.70
2019-04-14T06:41:57.590Z,90.62
2019-04-14T06:44:25.847Z,90.43
2019-04-14T06:46:54.142Z,90.25
2019-04-14T06:49:22.451Z,89.66
2019-04-14T06:51:50.714Z,89.07
2019-04-14T06:54:18.971Z,89.02
2019-04-14T06:56:47.244Z,88.51
2019-04-14T06:59:15.499Z,87.96
2019-04-14T07:01:43.761Z,87.26
2019-04-14T07:04:12.022Z,88.14
2019-04-14T07:06:40.290Z,87.85
2019-04-14T07:09:08.568Z,87.43
2019-04-14T07:11:36.844Z,87.56
2019-04-14T07:14:05.105Z,87.70
2019-04-14T07:16:33.383Z,87.22
2019-04-14T07:19:01.661Z,87.31
2019-04-14T07:21:29.945Z,87.23
2019-04-14T07:23:58.222Z,87.62
2019-04-14T07:26:26.508Z,86.74
2019-04-14T07:28:56.821Z,86.49
2019-04-14T07:31:42.772Z,86.35
2019-04-14T07:34:15.348Z,85.91
2019-04-14T07:36:47.974Z,86.38
2019-04-14T07:39:35.731Z,86.39
2019-04-14T07:42:08.494Z,86.74
2019-04-14T07:44:47.086Z,86.06
2019-04-14T07:47:17.014Z,86.11
2019-04-14T07:49:49.557Z,86.18
2019-04-14T07:52:37.294Z,86.33
2019-04-14T07:55:13.284Z,86.11
2019-04-14T07:57:54.960Z,85.83
2019-04-14T08:00:33.769Z,85.48
2019-04-14T08:03:21.726Z,85.25
2019-04-14T08:05:50.004Z,85.47
2019-04-14T08:08:18.271Z,85.09
2019-04-14T08:10:46.546Z,84.82
2019-04-14T08:13:14.807Z,85.20
2019-04-14T08:15:43.095Z,84.51
2019-04-14T08:18:11.363Z,84.39
2019-04-14T08:20:39.639Z,84.64
2019-04-14T08:23:07.903Z,85.07
2019-04-14T08:25:36.196Z,84.87
2019-04-14T08:28:04.510Z,84.33
2019-04-14T08:30:32.787Z,83.92
2019-04-14T08:33:01.095Z,84.08
2019-04-14T08:35:29.394Z,83.83
2019-04-14T08:37:57.708Z,83.94
2019-04-14T08:40:25.966Z,84.09
2019-04-14T08:42:55.874Z,83.39
2019-04-14T08:45:25.766Z,82.42
2019-04-14T08:47:55.698Z,82.34
2019-04-14T08:50:41.527Z,83.12
2019-04-14T08:53:11.444Z,83.51
2019-04-14T08:55:46.730Z,83.47
2019-04-14T08:58:16.665Z,82.82
2019-04-14T09:01:02.685Z,82.61
2019-04-14T09:03:32.694Z,82.48
2019-04-14T09:06:14.265Z,82.46
2019-04-14T09:08:44.204Z,82.28
2019-04-14T09:11:14.108Z,81.40
2019-04-14T09:13:42.387Z,81.86
2019-04-14T09:16:10.644Z,81.03
2019-04-14T09:18:38.917Z,81.04
2019-04-14T09:21:07.202Z,81.60
2019-04-14T09:23:35.460Z,81.98
2019-04-14T09:26:03.730Z,82.56
2019-04-14T09:28:32.008Z,82.55
2019-04-14T09:31:00.265Z,81.93
2019-04-14T09:33:28.546Z,82.15
2019-04-14T09:35:56.832Z,81.73
2019-04-14T09:38:25.099Z,81.08
2019-04-14T09:40:53.365Z,81.04
2019-04-14T09:43:21.632Z,81.27
2019-04-14T09:45:49.913Z,80.85
2019-04-14T09:48:18.184Z,81.18
2019-04-14T09:50:46.450Z,81.62
2019-04-14T09:53:14.710Z,81.66
2019-04-14T09:55:42.978Z,81.99
2019-04-14T09:58:11.260Z,82.24
2019-04-14T10:00:40.707Z,81.67
2019-04-14T10:03:09.329Z,81.59
2019-04-14T10:05:37.625Z,80.84
2019-04-14T10:08:05.914Z,80.37
2019-04-14T10:10:34.203Z,79.94
2019-04-14T10:13:02.475Z,79.96
2019-04-14T10:15:30.754Z,80.86
2019-04-14T10:17:59.053Z,80.93
2019-04-14T10:20:27.321Z,81.49
2019-04-14T10:22:55.581Z,83.07
2019-04-14T10:25:23.864Z,82.25
2019-04-14T10:27:52.144Z,83.37
2019-04-14T10:30:20.416Z,83.85
2019-04-14T10:32:48.688Z,84.83
2019-04-14T10:35:16.967Z,85.29
2019-04-14T10:37:45.243Z,84.90
2019-04-14T10:40:13.760Z,87.12
2019-04-14T10:42:42.026Z,88.69
2019-04-14T10:45:10.382Z,88.61
2019-04-14T10:47:38.823Z,89.55
2019-04-14T10:50:07.156Z,88.76
2019-04-14T10:52:35.425Z,88.63
2019-04-14T10:55:05.053Z,89.00
2019-04-14T10:57:33.321Z,89.59
2019-04-14T11:00:01.601Z,88.77
2019-04-14T11:02:29.858Z,87.99
2019-04-14T11:07:29.923Z,88.72
2019-04-14T11:09:58.212Z,89.81
2019-04-14T11:12:26.488Z,90.05
2019-04-14T11:14:54.749Z,90.88
2019-04-14T11:17:23.010Z,90.70
2019-04-14T11:19:51.283Z,91.45
2019-04-14T11:22:19.572Z,91.99
2019-04-14T11:24:47.831Z,92.02
2019-04-14T11:27:16.108Z,92.75
2019-04-14T11:29:44.451Z,92.69
2019-04-14T11:32:30.522Z,92.64
2019-04-14T11:35:03.117Z,92.60
2019-04-14T11:37:41.520Z,93.60
2019-04-14T11:40:11.603Z,95.04
2019-04-14T11:42:51.578Z,96.31
2019-04-14T11:45:09.948Z,98.38
2019-04-14T11:47:38.226Z,99.76
2019-04-14T11:50:07.776Z,100.00
2019-04-14T11:52:36.061Z,100.00
2019-04-14T11:55:05.282Z,100.00
2019-04-14T11:57:33.611Z,100.00
2019-04-14T12:00:19.481Z,100.00
2019-04-14T12:02:52.089Z,100.00
2019-04-14T12:05:22.026Z,100.00
2019-04-14T12:07:54.606Z,100.00
2019-04-14T12:10:23.749Z,99.59
2019-04-14T12:12:52.026Z,99.71
2019-04-14T12:15:20.311Z,99.68
2019-04-14T12:17:48.580Z,99.10
2019-04-14T12:20:16.868Z,99.63
2019-04-14T12:22:45.142Z,100.00
2019-04-14T12:25:13.426Z,98.22
2019-04-14T12:27:42.023Z,98.39
2019-04-14T12:30:11.619Z,99.98
2019-04-14T12:32:39.987Z,100.00
2019-04-14T12:35:09.442Z,100.00
2019-04-14T12:37:37.714Z,100.00
2019-04-14T12:40:07.265Z,100.00
2019-04-14T12:42:53.308Z,100.00
2019-04-14T12:45:41.085Z,100.00
2019-04-14T12:48:16.725Z,100.00
2019-04-14T12:50:46.634Z,100.00
2019-04-14T12:53:14.917Z,100.00
2019-04-14T12:55:43.191Z,100.00
2019-04-14T12:58:13.120Z,100.00
2019-04-14T13:00:45.985Z,100.00
2019-04-14T13:03:14.261Z,99.97
2019-04-14T13:05:42.535Z,99.38
2019-04-14T13:08:10.812Z,98.91
2019-04-14T13:10:39.093Z,99.70
2019-04-14T13:13:07.365Z,99.98
2019-04-14T13:15:35.642Z,98.98
2019-04-14T13:18:03.908Z,98.43
2019-04-14T13:20:32.171Z,98.69
2019-04-14T13:23:00.442Z,98.81
2019-04-14T13:25:28.726Z,98.61
2019-04-14T13:27:56.994Z,99.52
2019-04-14T13:30:26.923Z,99.97
2019-04-14T13:32:55.197Z,99.44
2019-04-14T13:35:23.482Z,98.73
2019-04-14T13:37:51.826Z,98.94
2019-04-14T13:40:20.118Z,99.05
2019-04-14T13:42:48.394Z,96.95
2019-04-14T13:45:16.699Z,97.67
2019-04-14T13:47:44.985Z,97.52
2019-04-14T13:50:13.368Z,97.76
2019-04-14T13:52:47.038Z,96.90
2019-04-14T13:55:11.742Z,96.47
2019-04-14T13:57:40.010Z,97.32
2019-04-14T14:00:11.586Z,96.65
2019-04-14T14:02:39.893Z,96.77
2019-04-14T14:05:08.241Z,96.74
2019-04-14T14:07:36.520Z,96.45
2019-04-14T14:10:06.751Z,96.82
2019-04-14T14:12:39.058Z,96.39
2019-04-14T14:15:27.495Z,96.02
2019-04-14T14:17:59.848Z,95.38
2019-04-14T14:20:41.828Z,94.56
2019-04-14T14:23:28.074Z,92.14
2019-04-14T14:26:00.756Z,91.11
2019-04-14T14:28:29.048Z,92.13
2019-04-14T14:30:57.334Z,90.84
2019-04-14T14:33:25.615Z,90.78
2019-04-14T14:35:53.891Z,90.78
2019-04-14T14:38:22.188Z,89.88
2019-04-14T14:40:50.463Z,89.78
2019-04-14T14:43:18.744Z,89.75
2019-04-14T14:45:48.636Z,89.96
2019-04-14T14:48:20.986Z,91.62
2019-04-14T14:50:56.558Z,92.28
2019-04-14T14:53:24.859Z,92.80
2019-04-14T14:55:53.142Z,92.66
2019-04-14T14:58:21.455Z,93.23
2019-04-14T15:00:49.754Z,92.80
2019-04-14T15:03:18.025Z,93.76
2019-04-14T15:05:46.301Z,94.33
2019-04-14T15:08:14.582Z,93.24
2019-04-14T15:10:42.955Z,92.46
2019-04-14T15:13:11.216Z,92.35
2019-04-14T15:15:39.507Z,91.92
2019-04-14T15:18:07.783Z,91.24
2019-04-14T15:20:36.063Z,91.06
2019-04-14T15:23:04.492Z,91.17
2019-04-14T15:25:32.774Z,90.91
2019-04-14T15:28:01.052Z,90.00
2019-04-14T15:30:29.329Z,89.59
2019-04-14T15:32:57.591Z,89.51
2019-04-14T15:35:25.880Z,89.02
2019-04-14T15:37:54.167Z,88.97
2019-04-14T15:40:22.510Z,89.26
2019-04-14T15:42:50.810Z,89.77
2019-04-14T15:45:19.107Z,89.28
2019-04-14T15:47:47.350Z,89.66
2019-04-14T15:50:15.626Z,89.36
2019-04-14T15:52:43.903Z,89.20
2019-04-14T15:55:13.108Z,88.90
2019-04-14T15:57:43.034Z,89.10
2019-04-14T16:00:30.818Z,88.92
2019-04-14T16:03:18.644Z,88.98
2019-04-14T16:06:00.027Z,88.63
2019-04-14T16:08:29.933Z,87.96
2019-04-14T16:10:59.847Z,87.11
2019-04-14T16:13:32.694Z,87.96
2019-04-14T16:16:18.578Z,87.55
2019-04-14T16:18:57.183Z,86.80
2019-04-14T16:21:25.438Z,87.37
2019-04-14T16:23:53.741Z,87.94
2019-04-14T16:26:26.547Z,87.49
2019-04-14T16:28:59.160Z,87.78
2019-04-14T16:31:46.884Z,88.03
2019-04-14T16:34:19.232Z,87.11
2019-04-14T16:36:49.160Z,87.03
2019-04-14T16:39:17.436Z,87.11
2019-04-14T16:41:45.708Z,87.12
2019-04-14T16:44:13.969Z,87.83
2019-04-14T16:46:42.234Z,87.45
2019-04-14T16:49:10.489Z,86.92
2019-04-14T16:51:45.864Z,86.63
2019-04-14T16:54:30.634Z,86.97
2019-04-14T16:57:03.205Z,87.29
2019-04-14T16:59:31.490Z,87.58
2019-04-14T17:02:10.430Z,87.74
2019-04-14T17:04:29.747Z,87.79
2019-04-14T17:06:58.021Z,87.68
2019-04-14T17:09:26.293Z,87.79
2019-04-14T17:11:54.574Z,88.16
2019-04-14T17:14:26.862Z,88.12
2019-04-14T17:17:05.513Z,88.51
2019-04-14T17:19:49.952Z,89.15
2019-04-14T17:22:28.865Z,89.20
2019-04-14T17:25:16.415Z,89.62
2019-04-14T17:27:49.333Z,90.32
2019-04-14T17:30:19.364Z,90.53
2019-04-14T17:33:05.183Z,90.87
2019-04-14T17:35:35.086Z,91.38
2019-04-14T17:38:05.030Z,91.32
2019-04-14T17:40:50.738Z,91.89
2019-04-14T17:43:20.648Z,92.28
2019-04-14T17:45:56.591Z,92.19
2019-04-14T17:48:35.393Z,91.85
2019-04-14T17:51:17.413Z,92.29
2019-04-14T17:53:47.316Z,92.69
2019-04-14T17:56:17.296Z,93.33
2019-04-14T17:58:47.147Z,92.69
2019-04-14T18:01:32.671Z,92.85
2019-04-14T18:04:02.578Z,92.96
2019-04-14T18:06:44.582Z,93.97
2019-04-14T18:09:23.158Z,93.98
2019-04-14T18:11:58.727Z,94.09
2019-04-14T18:14:37.068Z,93.89
2019-04-14T18:17:15.368Z,93.98
2019-04-14T18:19:45.269Z,93.74
2019-04-14T18:22:13.543Z,94.00
2019-04-14T18:24:42.970Z,93.88
2019-04-14T18:27:11.373Z,93.59
2019-04-14T18:29:50.133Z,93.55
2019-04-14T18:32:22.850Z,93.87
2019-04-14T18:35:07.783Z,94.35
2019-04-14T18:37:40.095Z,94.03
2019-04-14T18:40:18.906Z,93.97
2019-04-14T18:43:04.575Z,93.80
2019-04-14T18:45:37.458Z,93.72
2019-04-14T18:48:07.373Z,93.18
2019-04-14T18:50:37.297Z,93.18
2019-04-14T18:53:12.999Z,92.98
2019-04-14T18:55:57.979Z,92.92
2019-04-14T18:58:30.563Z,92.97
2019-04-14T19:01:00.497Z,92.11
2019-04-14T19:03:28.774Z,92.16
2019-04-14T19:05:57.060Z,92.45
2019-04-14T19:08:25.315Z,92.37
2019-04-14T19:11:06.933Z,91.61
2019-04-14T19:13:36.846Z,91.44
2019-04-14T19:16:06.798Z,91.22
2019-04-14T19:18:51.574Z,91.11
2019-04-14T19:21:21.445Z,91.27
2019-04-14T19:23:49.730Z,91.21
2019-04-14T19:26:18.024Z,90.71
2019-04-14T19:28:46.353Z,90.87
2019-04-14T19:31:14.982Z,90.14
2019-04-14T19:33:43.442Z,90.09
2019-04-14T19:36:11.757Z,89.75
2019-04-14T19:38:40.027Z,89.12
2019-04-14T19:41:08.310Z,88.69
2019-04-14T19:43:36.583Z,88.56
2019-04-14T19:46:04.940Z,88.51
2019-04-14T19:48:33.211Z,88.51
2019-04-14T19:51:01.513Z,88.24
2019-04-14T19:53:29.795Z,87.73
2019-04-14T19:55:58.062Z,87.64
2019-04-14T19:58:26.335Z,87.37
2019-04-14T20:00:54.609Z,87.52
2019-04-14T20:03:22.871Z,86.96
2019-04-14T20:05:51.166Z,85.98
2019-04-14T20:08:19.452Z,85.88
2019-04-14T20:10:47.741Z,86.00
2019-04-14T20:13:16.012Z,85.11
2019-04-14T20:15:48.631Z,83.37
2019-04-14T20:18:34.352Z,82.11
2019-04-14T20:21:19.396Z,81.35
2019-04-14T20:23:51.847Z,80.59
2019-04-14T20:26:36.840Z,79.35
2019-04-14T20:29:06.765Z,77.94
2019-04-14T20:31:39.395Z,77.42
2019-04-14T20:34:07.838Z,76.71
2019-04-14T20:36:36.105Z,75.53
2019-04-14T20:39:10.333Z,74.76
2019-04-14T20:41:38.842Z,73.48
2019-04-14T20:44:07.128Z,71.68
2019-04-14T20:46:35.379Z,71.84
2019-04-14T20:49:03.645Z,72.42
2019-04-14T20:51:31.900Z,72.02
2019-04-14T20:54:00.178Z,71.02
2019-04-14T20:56:28.454Z,70.79
2019-04-14T20:58:56.716Z,71.08
2019-04-14T21:01:26.627Z,71.12
2019-04-14T21:04:12.507Z,70.81
2019-04-14T21:06:51.207Z,71.00
2019-04-14T21:09:29.914Z,71.45
2019-04-14T21:12:05.265Z,70.22
2019-04-14T21:14:43.942Z,70.37
2019-04-14T21:17:13.862Z,71.29
2019-04-14T21:19:43.795Z,71.75
2019-04-14T21:22:13.704Z,71.56
2019-04-14T21:24:55.428Z,72.19
2019-04-14T21:27:37.016Z,72.82
2019-04-14T21:30:14.670Z,73.20
2019-04-14T21:32:44.575Z,73.14
2019-04-14T21:35:30.651Z,73.35
2019-04-14T21:38:00.575Z,72.89
2019-04-14T21:40:30.466Z,73.19
2019-04-14T21:42:58.735Z,73.65
2019-04-14T21:45:27.025Z,72.76
2019-04-14T21:47:55.307Z,72.67
2019-04-14T21:50:23.560Z,72.93
2019-04-14T21:52:51.835Z,73.99
2019-04-14T21:55:20.084Z,75.22
2019-04-14T21:57:50.008Z,75.55
2019-04-14T22:00:29.112Z,76.02
2019-04-14T22:03:10.828Z,76.80
2019-04-14T22:05:46.432Z,77.51
2019-04-14T22:08:25.545Z,77.78
2019-04-14T22:10:55.486Z,77.54
2019-04-14T22:13:23.916Z,77.32
2019-04-14T22:15:52.188Z,76.43
2019-04-14T22:18:20.470Z,76.30
2019-04-14T22:20:48.795Z,76.44
2019-04-14T22:23:17.052Z,76.39
2019-04-14T22:25:45.325Z,76.08
2019-04-14T22:28:13.602Z,75.70
2019-04-14T22:30:42.529Z,75.58
2019-04-14T22:33:10.800Z,74.11
2019-04-14T22:35:39.048Z,73.91
2019-04-14T22:38:07.325Z,72.71
2019-04-14T22:40:35.597Z,72.41
2019-04-14T22:43:04.034Z,71.59
2019-04-14T22:45:32.291Z,71.61
2019-04-14T22:48:00.561Z,72.18
2019-04-14T22:50:28.836Z,71.17
2019-04-14T22:52:57.085Z,71.10
2019-04-14T22:55:25.346Z,71.54
2019-04-14T22:57:53.622Z,71.13
2019-04-14T23:00:37.976Z,71.02
2019-04-14T23:03:16.375Z,71.36
2019-04-14T23:05:55.323Z,71.40
2019-04-14T23:08:31.196Z,71.83
2019-04-14T23:11:12.802Z,71.67
2019-04-14T23:13:46.335Z,71.59
2019-04-14T23:16:22.131Z,71.37
2019-04-14T23:18:54.710Z,71.01
2019-04-14T23:21:24.601Z,71.01
2019-04-14T23:23:57.188Z,71.61
2019-04-14T23:26:25.471Z,71.90
2019-04-14T23:28:53.729Z,71.19
2019-04-14T23:31:22.164Z,71.15
2019-04-14T23:33:50.424Z,71.34
2019-04-14T23:36:18.699Z,70.71
2019-04-14T23:38:46.956Z,70.96
2019-04-14T23:41:15.243Z,71.59
2019-04-14T23:43:43.925Z,71.19
2019-04-14T23:46:12.192Z,71.59
2019-04-14T23:48:40.471Z,72.13
2019-04-14T23:51:08.727Z,71.80
2019-04-14T23:53:37.009Z,71.53
2019-04-14T23:56:05.342Z,72.07
2019-04-14T23:58:33.610Z,72.10
